sensor_id;sensor_type;location;lat;lon;timestamp;pressure;altitude;pressure_sealevel;temperature;humidity
37710;BME280;60223;34.854;-92.408;2022-11-13T00:01:38;101364.65;;;20.19;27.48
37710;BME280;60223;34.854;-92.408;2022-11-13T00:04:04;101369.18;;;20.32;27.55
37710;BME280;60223;34.854;-92.408;2022-11-13T00:06:30;101377.67;;;20.37;27.55
37710;BME280;60223;34.854;-92.408;2022-11-13T00:08:56;101384.92;;;20.00;27.67
37710;BME280;60223;34.854;-92.408;2022-11-13T00:11:22;101394.91;;;20.27;27.63
37710;BME280;60223;34.854;-92.408;2022-11-13T00:13:48;101404.97;;;20.46;27.48
37710;BME280;60223;34.854;-92.408;2022-11-13T00:16:15;101409.42;;;20.25;27.69
37710;BME280;60223;34.854;-92.408;2022-11-13T00:18:39;101412.93;;;20.20;27.72
37710;BME280;60223;34.854;-92.408;2022-11-13T00:21:09;101417.97;;;20.46;27.70
37710;BME280;60223;34.854;-92.408;2022-11-13T00:23:31;101424.85;;;20.25;27.64
37710;BME280;60223;34.854;-92.408;2022-11-13T00:25:55;101427.84;;;20.16;27.74
37710;BME280;60223;34.854;-92.408;2022-11-13T00:28:22;101430.61;;;20.10;27.61
37710;BME280;60223;34.854;-92.408;2022-11-13T00:30:47;101435.00;;;20.01;27.65
37710;BME280;60223;34.854;-92.408;2022-11-13T00:33:13;101438.45;;;20.17;27.50
37710;BME280;60223;34.854;-92.408;2022-11-13T00:35:39;101442.40;;;20.00;27.62
37710;BME280;60223;34.854;-92.408;2022-11-13T00:38:05;101447.50;;;20.42;27.50
37710;BME280;60223;34.854;-92.408;2022-11-13T00:40:30;101447.13;;;20.26;27.66
37710;BME280;60223;34.854;-92.408;2022-11-13T00:42:55;101453.47;;;20.11;27.56
37710;BME280;60223;34.854;-92.408;2022-11-13T00:45:21;101454.41;;;20.32;27.58
37710;BME280;60223;34.854;-92.408;2022-11-13T00:47:47;101456.16;;;20.30;27.61
37710;BME280;60223;34.854;-92.408;2022-11-13T00:50:13;101460.23;;;20.09;27.77
37710;BME280;60223;34.854;-92.408;2022-11-13T00:52:38;101460.39;;;20.12;27.74
37710;BME280;60223;34.854;-92.408;2022-11-13T00:55:05;101465.80;;;20.17;27.69
37710;BME280;60223;34.854;-92.408;2022-11-13T00:57:30;101468.35;;;19.90;27.98
37710;BME280;60223;34.854;-92.408;2022-11-13T00:59:57;101471.76;;;20.14;27.73
37710;BME280;60223;34.854;-92.408;2022-11-13T01:02:21;101472.59;;;19.83;27.99
37710;BME280;60223;34.854;-92.408;2022-11-13T01:04:47;101472.44;;;19.91;27.93
37710;BME280;60223;34.854;-92.408;2022-11-13T01:07:13;101475.92;;;19.85;28.00
37710;BME280;60223;34.854;-92.408;2022-11-13T01:16:56;101484.34;;;19.84;28.04
37710;BME280;60223;34.854;-92.408;2022-11-13T01:19:21;101491.41;;;19.89;28.18
37710;BME280;60223;34.854;-92.408;2022-11-13T01:21:47;101490.18;;;19.81;28.04
37710;BME280;60223;34.854;-92.408;2022-11-13T01:24:13;101491.08;;;20.14;27.95
37710;BME280;60223;34.854;-92.408;2022-11-13T01:26:39;101497.09;;;19.63;28.15
37710;BME280;60223;34.854;-92.408;2022-11-13T01:29:05;101496.01;;;19.67;28.13
37710;BME280;60223;34.854;-92.408;2022-11-13T01:31:31;101498.69;;;19.59;28.21
37710;BME280;60223;34.854;-92.408;2022-11-13T01:33:56;101498.05;;;19.28;28.25
37710;BME280;60223;34.854;-92.408;2022-11-13T01:36:24;101499.83;;;19.73;28.06
37710;BME280;60223;34.854;-92.408;2022-11-13T01:38:48;101507.01;;;19.54;28.22
37710;BME280;60223;34.854;-92.408;2022-11-13T01:41:19;101509.89;;;19.91;28.10
37710;BME280;60223;34.854;-92.408;2022-11-13T01:43:40;101513.46;;;19.90;27.86
37710;BME280;60223;34.854;-92.408;2022-11-13T01:46:12;101515.79;;;19.61;28.18
37710;BME280;60223;34.854;-92.408;2022-11-13T01:48:35;101515.33;;;19.38;28.14
37710;BME280;60223;34.854;-92.408;2022-11-13T01:50:57;101520.19;;;19.77;28.24
37710;BME280;60223;34.854;-92.408;2022-11-13T01:53:22;101524.32;;;19.79;28.14
37710;BME280;60223;34.854;-92.408;2022-11-13T01:55:47;101528.93;;;19.98;27.93
37710;BME280;60223;34.854;-92.408;2022-11-13T01:58:14;101530.78;;;19.52;28.37
37710;BME280;60223;34.854;-92.408;2022-11-13T02:00:39;101534.94;;;19.60;28.29
37710;BME280;60223;34.854;-92.408;2022-11-13T02:03:05;101535.89;;;19.61;28.29
37710;BME280;60223;34.854;-92.408;2022-11-13T02:05:31;101538.64;;;19.76;28.14
37710;BME280;60223;34.854;-92.408;2022-11-13T02:07:57;101540.61;;;19.52;28.21
37710;BME280;60223;34.854;-92.408;2022-11-13T02:10:22;101544.86;;;19.47;28.21
37710;BME280;60223;34.854;-92.408;2022-11-13T02:12:51;101545.91;;;19.34;28.24
37710;BME280;60223;34.854;-92.408;2022-11-13T02:17:44;101545.62;;;19.50;28.19
37710;BME280;60223;34.854;-92.408;2022-11-13T02:20:08;101548.02;;;19.47;28.20
37710;BME280;60223;34.854;-92.408;2022-11-13T02:22:36;101550.32;;;19.28;28.31
37710;BME280;60223;34.854;-92.408;2022-11-13T02:24:58;101553.14;;;19.56;28.21
37710;BME280;60223;34.854;-92.408;2022-11-13T02:27:27;101559.17;;;19.45;28.13
37710;BME280;60223;34.854;-92.408;2022-11-13T02:29:48;101557.43;;;19.50;27.99
37710;BME280;60223;34.854;-92.408;2022-11-13T02:32:14;101559.11;;;19.49;28.13
37710;BME280;60223;34.854;-92.408;2022-11-13T02:34:39;101561.89;;;19.74;27.99
37710;BME280;60223;34.854;-92.408;2022-11-13T02:37:13;101564.21;;;19.80;27.93
37710;BME280;60223;34.854;-92.408;2022-11-13T02:39:30;101563.06;;;19.59;28.11
37710;BME280;60223;34.854;-92.408;2022-11-13T02:41:57;101566.32;;;19.95;27.87
37710;BME280;60223;34.854;-92.408;2022-11-13T02:44:22;101569.40;;;19.86;27.91
37710;BME280;60223;34.854;-92.408;2022-11-13T02:46:48;101577.83;;;19.70;28.06
37710;BME280;60223;34.854;-92.408;2022-11-13T02:49:14;101583.17;;;19.86;27.76
37710;BME280;60223;34.854;-92.408;2022-11-13T02:51:39;101590.60;;;19.27;28.13
37710;BME280;60223;34.854;-92.408;2022-11-13T02:54:06;101596.40;;;19.63;28.04
37710;BME280;60223;34.854;-92.408;2022-11-13T03:08:40;101618.19;;;19.29;28.47
37710;BME280;60223;34.854;-92.408;2022-11-13T03:11:10;101625.06;;;19.17;28.29
37710;BME280;60223;34.854;-92.408;2022-11-13T03:13:31;101629.64;;;19.47;28.16
37710;BME280;60223;34.854;-92.408;2022-11-13T03:18:23;101637.30;;;19.50;27.95
37710;BME280;60223;34.854;-92.408;2022-11-13T03:20:49;101642.58;;;19.61;28.03
37710;BME280;60223;34.854;-92.408;2022-11-13T03:23:14;101646.15;;;19.85;27.85
37710;BME280;60223;34.854;-92.408;2022-11-13T03:25:40;101648.94;;;19.80;27.62
37710;BME280;60223;34.854;-92.408;2022-11-13T03:28:06;101650.14;;;20.24;27.35
37710;BME280;60223;34.854;-92.408;2022-11-13T03:30:29;101656.96;;;20.55;27.00
37710;BME280;60223;34.854;-92.408;2022-11-13T03:32:58;101661.24;;;20.46;27.14
37710;BME280;60223;34.854;-92.408;2022-11-13T03:35:23;101664.51;;;20.33;26.96
37710;BME280;60223;34.854;-92.408;2022-11-13T03:37:47;101670.25;;;20.65;26.93
37710;BME280;60223;34.854;-92.408;2022-11-13T03:40:15;101676.66;;;21.27;26.25
37710;BME280;60223;34.854;-92.408;2022-11-13T03:42:41;101678.46;;;20.80;26.52
37710;BME280;60223;34.854;-92.408;2022-11-13T03:45:06;101668.53;;;20.91;26.66
37710;BME280;60223;34.854;-92.408;2022-11-13T03:47:32;101666.85;;;20.71;26.38
37710;BME280;60223;34.854;-92.408;2022-11-13T03:49:58;101670.52;;;21.00;26.46
37710;BME280;60223;34.854;-92.408;2022-11-13T03:52:23;101677.64;;;20.55;26.55
37710;BME280;60223;34.854;-92.408;2022-11-13T03:54:49;101683.39;;;21.31;26.24
37710;BME280;60223;34.854;-92.408;2022-11-13T03:57:15;101684.73;;;20.60;26.50
37710;BME280;60223;34.854;-92.408;2022-11-13T03:59:41;101686.40;;;21.02;26.10
37710;BME280;60223;34.854;-92.408;2022-11-13T04:02:06;101688.49;;;21.14;26.20
37710;BME280;60223;34.854;-92.408;2022-11-13T04:04:32;101691.88;;;20.97;26.25
37710;BME280;60223;34.854;-92.408;2022-11-13T04:06:58;101695.77;;;21.04;26.15
37710;BME280;60223;34.854;-92.408;2022-11-13T04:09:24;101698.22;;;20.91;26.08
37710;BME280;60223;34.854;-92.408;2022-11-13T04:11:50;101702.38;;;20.63;26.23
37710;BME280;60223;34.854;-92.408;2022-11-13T04:14:15;101703.64;;;21.02;26.13
37710;BME280;60223;34.854;-92.408;2022-11-13T04:16:41;101704.40;;;20.86;26.39
37710;BME280;60223;34.854;-92.408;2022-11-13T04:19:07;101701.22;;;21.52;25.85
37710;BME280;60223;34.854;-92.408;2022-11-13T04:21:33;101700.83;;;21.25;25.84
37710;BME280;60223;34.854;-92.408;2022-11-13T04:23:58;101702.23;;;21.25;25.80
37710;BME280;60223;34.854;-92.408;2022-11-13T04:26:23;101706.46;;;20.66;26.37
37710;BME280;60223;34.854;-92.408;2022-11-13T04:28:49;101710.12;;;20.46;26.46
37710;BME280;60223;34.854;-92.408;2022-11-13T04:31:15;101713.95;;;20.28;26.56
37710;BME280;60223;34.854;-92.408;2022-11-13T04:33:41;101714.68;;;20.55;26.36
37710;BME280;60223;34.854;-92.408;2022-11-13T04:36:07;101710.94;;;21.14;26.02
37710;BME280;60223;34.854;-92.408;2022-11-13T04:38:32;101714.31;;;20.59;26.27
37710;BME280;60223;34.854;-92.408;2022-11-13T04:40:58;101714.57;;;20.75;26.35
37710;BME280;60223;34.854;-92.408;2022-11-13T04:43:24;101712.51;;;20.74;26.05
37710;BME280;60223;34.854;-92.408;2022-11-13T04:45:51;101710.07;;;20.06;26.67
37710;BME280;60223;34.854;-92.408;2022-11-13T04:48:16;101710.31;;;20.59;26.24
37710;BME280;60223;34.854;-92.408;2022-11-13T04:50:41;101712.06;;;20.79;26.27
37710;BME280;60223;34.854;-92.408;2022-11-13T04:53:06;101713.42;;;20.52;26.29
37710;BME280;60223;34.854;-92.408;2022-11-13T04:55:33;101716.85;;;20.45;26.36
37710;BME280;60223;34.854;-92.408;2022-11-13T04:57:59;101716.71;;;19.92;26.53
37710;BME280;60223;34.854;-92.408;2022-11-13T05:00:25;101721.32;;;20.61;26.32
37710;BME280;60223;34.854;-92.408;2022-11-13T05:02:50;101722.78;;;20.74;26.17
37710;BME280;60223;34.854;-92.408;2022-11-13T05:05:16;101722.27;;;20.32;26.29
37710;BME280;60223;34.854;-92.408;2022-11-13T05:07:42;101721.58;;;20.31;26.30
37710;BME280;60223;34.854;-92.408;2022-11-13T05:10:08;101720.91;;;20.31;26.50
37710;BME280;60223;34.854;-92.408;2022-11-13T05:12:33;101725.96;;;20.27;26.32
37710;BME280;60223;34.854;-92.408;2022-11-13T05:14:58;101728.76;;;20.96;25.91
37710;BME280;60223;34.854;-92.408;2022-11-13T05:17:25;101728.28;;;20.16;26.32
37710;BME280;60223;34.854;-92.408;2022-11-13T05:19:51;101726.14;;;19.81;26.80
37710;BME280;60223;34.854;-92.408;2022-11-13T05:22:16;101725.41;;;19.81;26.57
37710;BME280;60223;34.854;-92.408;2022-11-13T05:24:42;101728.25;;;20.14;26.53
37710;BME280;60223;34.854;-92.408;2022-11-13T05:27:08;101732.83;;;19.71;27.04
37710;BME280;60223;34.854;-92.408;2022-11-13T05:29:34;101734.66;;;20.36;26.40
37710;BME280;60223;34.854;-92.408;2022-11-13T05:32:00;101731.85;;;19.56;26.97
37710;BME280;60223;34.854;-92.408;2022-11-13T05:34:26;101730.36;;;19.59;26.97
37710;BME280;60223;34.854;-92.408;2022-11-13T05:36:51;101734.28;;;20.35;26.37
37710;BME280;60223;34.854;-92.408;2022-11-13T05:39:17;101741.55;;;20.16;26.57
37710;BME280;60223;34.854;-92.408;2022-11-13T05:41:43;101738.26;;;20.39;26.20
37710;BME280;60223;34.854;-92.408;2022-11-13T05:44:08;101741.21;;;19.50;26.82
37710;BME280;60223;34.854;-92.408;2022-11-13T05:46:34;101742.73;;;19.85;26.75
37710;BME280;60223;34.854;-92.408;2022-11-13T05:49:01;101745.23;;;19.89;26.62
37710;BME280;60223;34.854;-92.408;2022-11-13T05:51:27;101744.45;;;19.86;26.62
37710;BME280;60223;34.854;-92.408;2022-11-13T05:53:51;101745.75;;;19.87;26.55
37710;BME280;60223;34.854;-92.408;2022-11-13T05:56:16;101748.12;;;19.54;26.85
37710;BME280;60223;34.854;-92.408;2022-11-13T05:58:44;101750.65;;;19.77;26.60
37710;BME280;60223;34.854;-92.408;2022-11-13T06:01:10;101749.18;;;19.95;26.44
37710;BME280;60223;34.854;-92.408;2022-11-13T06:03:34;101751.14;;;19.82;26.31
37710;BME280;60223;34.854;-92.408;2022-11-13T06:06:01;101750.05;;;19.60;26.67
37710;BME280;60223;34.854;-92.408;2022-11-13T06:08:26;101747.27;;;19.66;26.61
37710;BME280;60223;34.854;-92.408;2022-11-13T06:10:51;101749.10;;;19.28;26.89
37710;BME280;60223;34.854;-92.408;2022-11-13T06:13:17;101752.82;;;19.74;26.52
37710;BME280;60223;34.854;-92.408;2022-11-13T06:15:43;101754.12;;;19.66;26.54
37710;BME280;60223;34.854;-92.408;2022-11-13T06:18:09;101749.88;;;20.04;26.16
37710;BME280;60223;34.854;-92.408;2022-11-13T06:20:36;101745.21;;;19.76;26.43
37710;BME280;60223;34.854;-92.408;2022-11-13T06:23:01;101746.46;;;19.85;26.36
37710;BME280;60223;34.854;-92.408;2022-11-13T06:25:27;101745.82;;;19.82;26.55
37710;BME280;60223;34.854;-92.408;2022-11-13T06:27:52;101745.08;;;19.27;26.80
37710;BME280;60223;34.854;-92.408;2022-11-13T06:30:18;101744.62;;;19.54;26.53
37710;BME280;60223;34.854;-92.408;2022-11-13T06:32:43;101740.77;;;19.53;26.52
37710;BME280;60223;34.854;-92.408;2022-11-13T06:35:09;101739.18;;;19.86;26.18
37710;BME280;60223;34.854;-92.408;2022-11-13T06:37:32;101739.93;;;19.49;26.53
37710;BME280;60223;34.854;-92.408;2022-11-13T06:40:01;101739.41;;;19.38;26.41
37710;BME280;60223;34.854;-92.408;2022-11-13T06:42:26;101739.92;;;19.73;26.26
37710;BME280;60223;34.854;-92.408;2022-11-13T06:44:52;101738.32;;;19.54;26.43
37710;BME280;60223;34.854;-92.408;2022-11-13T06:47:18;101736.96;;;20.43;26.08
37710;BME280;60223;34.854;-92.408;2022-11-13T06:49:44;101736.27;;;20.08;26.12
37710;BME280;60223;34.854;-92.408;2022-11-13T06:52:10;101736.80;;;20.56;25.88
37710;BME280;60223;34.854;-92.408;2022-11-13T06:54:36;101728.75;;;19.62;26.19
37710;BME280;60223;34.854;-92.408;2022-11-13T06:57:02;101728.16;;;19.58;26.25
37710;BME280;60223;34.854;-92.408;2022-11-13T06:59:27;101731.48;;;20.22;26.10
37710;BME280;60223;34.854;-92.408;2022-11-13T07:01:53;101730.89;;;19.41;26.37
37710;BME280;60223;34.854;-92.408;2022-11-13T07:04:19;101732.21;;;19.46;26.34
37710;BME280;60223;34.854;-92.408;2022-11-13T07:06:44;101735.94;;;19.69;26.14
37710;BME280;60223;34.854;-92.408;2022-11-13T07:09:10;101739.42;;;19.13;26.55
37710;BME280;60223;34.854;-92.408;2022-11-13T07:11:36;101736.00;;;19.67;26.11
37710;BME280;60223;34.854;-92.408;2022-11-13T07:14:02;101732.66;;;19.28;26.41
37710;BME280;60223;34.854;-92.408;2022-11-13T07:16:28;101735.10;;;19.45;26.44
37710;BME280;60223;34.854;-92.408;2022-11-13T07:18:54;101737.90;;;20.04;25.75
37710;BME280;60223;34.854;-92.408;2022-11-13T07:21:20;101735.33;;;19.60;26.03
37710;BME280;60223;34.854;-92.408;2022-11-13T07:23:46;101732.01;;;19.30;26.33
37710;BME280;60223;34.854;-92.408;2022-11-13T07:26:11;101731.43;;;19.75;25.89
37710;BME280;60223;34.854;-92.408;2022-11-13T07:28:36;101733.33;;;19.66;25.95
37710;BME280;60223;34.854;-92.408;2022-11-13T07:31:03;101729.71;;;19.71;26.28
37710;BME280;60223;34.854;-92.408;2022-11-13T07:33:28;101733.25;;;19.54;26.42
37710;BME280;60223;34.854;-92.408;2022-11-13T07:35:55;101729.52;;;19.64;26.13
37710;BME280;60223;34.854;-92.408;2022-11-13T07:38:19;101727.39;;;19.78;25.98
37710;BME280;60223;34.854;-92.408;2022-11-13T07:40:45;101725.20;;;19.80;25.96
37710;BME280;60223;34.854;-92.408;2022-11-13T07:43:11;101724.02;;;19.56;25.90
37710;BME280;60223;34.854;-92.408;2022-11-13T07:45:37;101721.83;;;19.38;26.05
37710;BME280;60223;34.854;-92.408;2022-11-13T07:48:05;101723.98;;;19.49;25.90
37710;BME280;60223;34.854;-92.408;2022-11-13T07:50:29;101720.92;;;19.60;25.97
37710;BME280;60223;34.854;-92.408;2022-11-13T07:52:58;101720.48;;;19.61;25.86
37710;BME280;60223;34.854;-92.408;2022-11-13T07:55:20;101720.54;;;20.01;25.82
37710;BME280;60223;34.854;-92.408;2022-11-13T07:57:46;101722.87;;;19.44;25.90
37710;BME280;60223;34.854;-92.408;2022-11-13T08:00:13;101719.59;;;20.02;25.76
37710;BME280;60223;34.854;-92.408;2022-11-13T08:02:37;101717.77;;;19.54;25.75
37710;BME280;60223;34.854;-92.408;2022-11-13T08:05:04;101716.73;;;20.05;25.69
37710;BME280;60223;34.854;-92.408;2022-11-13T08:07:29;101717.90;;;20.04;25.47
37710;BME280;60223;34.854;-92.408;2022-11-13T08:09:55;101720.47;;;19.27;25.93
37710;BME280;60223;34.854;-92.408;2022-11-13T08:12:21;101722.94;;;19.93;25.72
37710;BME280;60223;34.854;-92.408;2022-11-13T08:14:47;101724.22;;;19.66;25.55
37710;BME280;60223;34.854;-92.408;2022-11-13T08:17:12;101722.59;;;19.59;25.56
37710;BME280;60223;34.854;-92.408;2022-11-13T08:19:38;101727.69;;;19.68;25.70
37710;BME280;60223;34.854;-92.408;2022-11-13T08:22:04;101732.27;;;19.54;25.80
37710;BME280;60223;34.854;-92.408;2022-11-13T08:24:30;101741.47;;;19.34;25.96
37710;BME280;60223;34.854;-92.408;2022-11-13T08:26:55;101738.46;;;20.16;25.42
37710;BME280;60223;34.854;-92.408;2022-11-13T08:29:21;101738.47;;;19.88;25.66
37710;BME280;60223;34.854;-92.408;2022-11-13T08:31:47;101739.04;;;19.90;25.65
37710;BME280;60223;34.854;-92.408;2022-11-13T08:34:13;101743.35;;;20.19;25.36
37710;BME280;60223;34.854;-92.408;2022-11-13T08:36:39;101749.15;;;19.63;25.79
37710;BME280;60223;34.854;-92.408;2022-11-13T08:39:05;101745.87;;;19.84;25.61
37710;BME280;60223;34.854;-92.408;2022-11-13T08:43:55;101747.05;;;20.26;25.23
37710;BME280;60223;34.854;-92.408;2022-11-13T08:46:22;101747.68;;;19.49;25.87
37710;BME280;60223;34.854;-92.408;2022-11-13T08:48:48;101746.02;;;19.65;25.69
37710;BME280;60223;34.854;-92.408;2022-11-13T08:51:13;101749.62;;;18.88;25.92
37710;BME280;60223;34.854;-92.408;2022-11-13T08:53:39;101746.97;;;19.51;25.59
37710;BME280;60223;34.854;-92.408;2022-11-13T08:56:06;101751.73;;;19.82;25.48
37710;BME280;60223;34.854;-92.408;2022-11-13T08:58:31;101752.15;;;19.79;25.51
37710;BME280;60223;34.854;-92.408;2022-11-13T09:01:02;101751.25;;;19.86;25.39
37710;BME280;60223;34.854;-92.408;2022-11-13T09:03:22;101754.84;;;19.82;25.41
37710;BME280;60223;34.854;-92.408;2022-11-13T09:05:48;101758.59;;;19.72;25.49
37710;BME280;60223;34.854;-92.408;2022-11-13T09:08:14;101756.51;;;19.55;25.79
37710;BME280;60223;34.854;-92.408;2022-11-13T09:10:40;101755.65;;;19.22;25.70
37710;BME280;60223;34.854;-92.408;2022-11-13T09:13:08;101753.40;;;20.18;25.27
37710;BME280;60223;34.854;-92.408;2022-11-13T09:15:32;101749.76;;;19.59;25.09
37710;BME280;60223;34.854;-92.408;2022-11-13T09:18:00;101747.28;;;19.92;25.22
37710;BME280;60223;34.854;-92.408;2022-11-13T09:20:23;101748.07;;;19.79;25.26
37710;BME280;60223;34.854;-92.408;2022-11-13T09:25:15;101753.08;;;19.56;25.25
37710;BME280;60223;34.854;-92.408;2022-11-13T09:27:41;101759.52;;;19.82;25.17
37710;BME280;60223;34.854;-92.408;2022-11-13T09:30:07;101764.30;;;19.80;25.20
37710;BME280;60223;34.854;-92.408;2022-11-13T09:32:32;101768.43;;;19.63;25.49
37710;BME280;60223;34.854;-92.408;2022-11-13T09:34:58;101771.06;;;19.40;25.30
37710;BME280;60223;34.854;-92.408;2022-11-13T09:37:24;101773.90;;;19.52;25.19
37710;BME280;60223;34.854;-92.408;2022-11-13T09:39:50;101777.05;;;19.84;25.13
37710;BME280;60223;34.854;-92.408;2022-11-13T09:42:18;101778.11;;;19.93;24.94
37710;BME280;60223;34.854;-92.408;2022-11-13T09:44:45;101782.17;;;19.99;24.88
37710;BME280;60223;34.854;-92.408;2022-11-13T09:47:11;101786.03;;;19.70;25.15
37710;BME280;60223;34.854;-92.408;2022-11-13T09:49:36;101788.08;;;20.40;24.59
37710;BME280;60223;34.854;-92.408;2022-11-13T09:52:02;101797.57;;;19.65;25.34
37710;BME280;60223;34.854;-92.408;2022-11-13T09:54:25;101800.49;;;19.64;24.93
37710;BME280;60223;34.854;-92.408;2022-11-13T09:56:56;101804.52;;;19.58;25.18
37710;BME280;60223;34.854;-92.408;2022-11-13T09:59:21;101802.89;;;19.38;25.28
37710;BME280;60223;34.854;-92.408;2022-11-13T10:01:51;101803.25;;;19.68;25.05
37710;BME280;60223;34.854;-92.408;2022-11-13T10:04:10;101803.48;;;19.69;25.03
37710;BME280;60223;34.854;-92.408;2022-11-13T10:06:41;101803.06;;;19.31;25.28
37710;BME280;60223;34.854;-92.408;2022-11-13T10:09:02;101804.76;;;19.52;25.14
37710;BME280;60223;34.854;-92.408;2022-11-13T10:11:35;101803.78;;;19.34;25.28
37710;BME280;60223;34.854;-92.408;2022-11-13T10:13:55;101802.81;;;19.62;25.26
37710;BME280;60223;34.854;-92.408;2022-11-13T10:16:25;101802.40;;;19.62;25.03
37710;BME280;60223;34.854;-92.408;2022-11-13T10:18:43;101803.46;;;19.53;25.24
37710;BME280;60223;34.854;-92.408;2022-11-13T10:21:14;101801.45;;;19.51;25.06
37710;BME280;60223;34.854;-92.408;2022-11-13T10:23:37;101804.49;;;19.69;25.09
37710;BME280;60223;34.854;-92.408;2022-11-13T10:26:14;101809.10;;;19.65;25.09
37710;BME280;60223;34.854;-92.408;2022-11-13T10:28:27;101809.65;;;19.35;25.16
37710;BME280;60223;34.854;-92.408;2022-11-13T10:30:52;101807.72;;;19.64;25.04
37710;BME280;60223;34.854;-92.408;2022-11-13T10:33:20;101808.85;;;19.12;25.29
37710;BME280;60223;34.854;-92.408;2022-11-13T10:35:49;101805.58;;;20.05;24.67
37710;BME280;60223;34.854;-92.408;2022-11-13T10:38:15;101806.87;;;19.91;24.77
37710;BME280;60223;34.854;-92.408;2022-11-13T10:40:37;101812.19;;;19.65;24.75
37710;BME280;60223;34.854;-92.408;2022-11-13T10:43:09;101814.25;;;19.24;25.09
37710;BME280;60223;34.854;-92.408;2022-11-13T10:45:27;101809.56;;;19.04;25.44
37710;BME280;60223;34.854;-92.408;2022-11-13T10:47:51;101810.04;;;19.89;24.68
37710;BME280;60223;34.854;-92.408;2022-11-13T10:50:24;101819.14;;;19.87;24.89
37710;BME280;60223;34.854;-92.408;2022-11-13T10:55:21;101832.17;;;19.92;24.79
37710;BME280;60223;34.854;-92.408;2022-11-13T10:57:36;101837.72;;;19.71;24.80
37710;BME280;60223;34.854;-92.408;2022-11-13T11:02:29;101840.76;;;19.58;24.83
37710;BME280;60223;34.854;-92.408;2022-11-13T11:05:02;101844.04;;;19.87;24.79
37710;BME280;60223;34.854;-92.408;2022-11-13T11:07:21;101847.83;;;20.01;24.66
37710;BME280;60223;34.854;-92.408;2022-11-13T11:09:46;101850.75;;;19.42;24.89
37710;BME280;60223;34.854;-92.408;2022-11-13T11:12:13;101849.05;;;19.04;25.39
37710;BME280;60223;34.854;-92.408;2022-11-13T11:14:42;101850.51;;;19.06;24.99
37710;BME280;60223;34.854;-92.408;2022-11-13T11:17:04;101850.09;;;19.07;25.17
37710;BME280;60223;34.854;-92.408;2022-11-13T11:19:32;101859.26;;;19.60;24.93
37710;BME280;60223;34.854;-92.408;2022-11-13T11:21:58;101864.02;;;19.95;24.60
37710;BME280;60223;34.854;-92.408;2022-11-13T11:24:24;101865.34;;;19.56;24.71
37710;BME280;60223;34.854;-92.408;2022-11-13T11:26:49;101865.08;;;19.63;24.65
37710;BME280;60223;34.854;-92.408;2022-11-13T11:29:16;101863.48;;;19.61;24.81
37710;BME280;60223;34.854;-92.408;2022-11-13T11:31:44;101860.83;;;19.33;24.84
37710;BME280;60223;34.854;-92.408;2022-11-13T11:34:11;101859.50;;;19.29;25.05
37710;BME280;60223;34.854;-92.408;2022-11-13T11:36:33;101863.19;;;19.41;24.96
37710;BME280;60223;34.854;-92.408;2022-11-13T11:38:59;101865.23;;;19.66;24.56
37710;BME280;60223;34.854;-92.408;2022-11-13T11:41:25;101864.13;;;19.79;24.59
37710;BME280;60223;34.854;-92.408;2022-11-13T11:43:50;101859.94;;;19.26;24.97
37710;BME280;60223;34.854;-92.408;2022-11-13T11:46:21;101860.13;;;19.89;24.47
37710;BME280;60223;34.854;-92.408;2022-11-13T11:48:39;101858.79;;;19.25;24.97
37710;BME280;60223;34.854;-92.408;2022-11-13T11:51:12;101856.66;;;19.58;24.68
37710;BME280;60223;34.854;-92.408;2022-11-13T11:53:37;101852.79;;;19.52;24.65
37710;BME280;60223;34.854;-92.408;2022-11-13T11:56:09;101854.32;;;19.67;24.56
37710;BME280;60223;34.854;-92.408;2022-11-13T11:58:33;101855.48;;;19.08;24.84
37710;BME280;60223;34.854;-92.408;2022-11-13T12:00:53;101856.47;;;19.35;24.60
37710;BME280;60223;34.854;-92.408;2022-11-13T12:03:25;101856.86;;;19.54;24.41
37710;BME280;60223;34.854;-92.408;2022-11-13T12:05:45;101857.11;;;19.08;24.96
37710;BME280;60223;34.854;-92.408;2022-11-13T12:08:16;101860.49;;;19.72;24.43
37710;BME280;60223;34.854;-92.408;2022-11-13T12:10:35;101866.04;;;19.38;24.52
37710;BME280;60223;34.854;-92.408;2022-11-13T12:13:09;101866.83;;;19.55;24.51
37710;BME280;60223;34.854;-92.408;2022-11-13T12:20:24;101865.28;;;19.31;24.70
37710;BME280;60223;34.854;-92.408;2022-11-13T12:22:46;101866.96;;;19.98;24.14
37710;BME280;60223;34.854;-92.408;2022-11-13T12:25:16;101866.76;;;19.30;24.61
37710;BME280;60223;34.854;-92.408;2022-11-13T12:27:39;101870.63;;;20.11;24.00
37710;BME280;60223;34.854;-92.408;2022-11-13T12:30:08;101863.26;;;19.17;24.68
37710;BME280;60223;34.854;-92.408;2022-11-13T12:32:36;101862.00;;;19.70;24.29
37710;BME280;60223;34.854;-92.408;2022-11-13T12:34:52;101856.96;;;19.41;24.47
37710;BME280;60223;34.854;-92.408;2022-11-13T12:37:19;101854.52;;;19.24;24.60
37710;BME280;60223;34.854;-92.408;2022-11-13T12:39:47;101855.98;;;19.42;24.42
37710;BME280;60223;34.854;-92.408;2022-11-13T12:42:15;101857.53;;;19.55;24.28
37710;BME280;60223;34.854;-92.408;2022-11-13T12:44:35;101854.04;;;19.31;24.44
37710;BME280;60223;34.854;-92.408;2022-11-13T12:47:00;101857.78;;;19.84;24.20
37710;BME280;60223;34.854;-92.408;2022-11-13T12:49:31;101856.86;;;19.37;24.36
37710;BME280;60223;34.854;-92.408;2022-11-13T12:51:55;101856.89;;;19.29;24.44
37710;BME280;60223;34.854;-92.408;2022-11-13T12:54:25;101864.79;;;19.80;24.05
37710;BME280;60223;34.854;-92.408;2022-11-13T12:56:42;101865.93;;;19.13;24.58
37710;BME280;60223;34.854;-92.408;2022-11-13T13:01:41;101858.67;;;19.05;24.59
37710;BME280;60223;34.854;-92.408;2022-11-13T13:04:16;101859.09;;;19.62;24.49